sensor_id;sensor_type;location;lat;lon;timestamp;P1;durP1;ratioP1;P2;durP2;ratioP2
23266;SDS011;11802;53.160;8.214;2022-09-09T00:02:10;24.43;;;17.17;;
23266;SDS011;11802;53.160;8.214;2022-09-09T00:04:47;33.23;;;20.20;;
23266;SDS011;11802;53.160;8.214;2022-09-09T00:18:14;38.67;;;19.77;;
23266;SDS011;11802;53.160;8.214;2022-09-09T00:20:59;34.43;;;20.23;;
23266;SDS011;11802;53.160;8.214;2022-09-09T00:23:43;31.47;;;19.83;;
23266;SDS011;11802;53.160;8.214;2022-09-09T00:31:33;30.43;;;19.27;;
23266;SDS011;11802;53.160;8.214;2022-09-09T00:34:12;32.40;;;18.83;;
23266;SDS011;11802;53.160;8.214;2022-09-09T00:36:42;31.93;;;19.70;;
23266;SDS011;11802;53.160;8.214;2022-09-09T00:39:53;32.37;;;20.23;;
23266;SDS011;11802;53.160;8.214;2022-09-09T00:44:30;30.70;;;20.80;;
23266;SDS011;11802;53.160;8.214;2022-09-09T00:47:17;36.07;;;22.07;;
23266;SDS011;11802;53.160;8.214;2022-09-09T00:52:51;37.00;;;22.57;;
23266;SDS011;11802;53.160;8.214;2022-09-09T00:58:19;34.33;;;21.17;;
23266;SDS011;11802;53.160;8.214;2022-09-09T01:00:46;33.73;;;22.13;;
23266;SDS011;11802;53.160;8.214;2022-09-09T01:06:12;33.63;;;21.80;;
23266;SDS011;11802;53.160;8.214;2022-09-09T01:17:17;37.57;;;23.00;;
23266;SDS011;11802;53.160;8.214;2022-09-09T01:28:42;38.13;;;22.90;;
23266;SDS011;11802;53.160;8.214;2022-09-09T01:31:14;35.07;;;22.57;;
23266;SDS011;11802;53.160;8.214;2022-09-09T01:33:43;38.33;;;22.07;;
23266;SDS011;11802;53.160;8.214;2022-09-09T01:38:40;36.70;;;23.57;;
23266;SDS011;11802;53.160;8.214;2022-09-09T01:41:09;41.53;;;23.73;;
23266;SDS011;11802;53.160;8.214;2022-09-09T01:43:35;33.37;;;22.17;;
23266;SDS011;11802;53.160;8.214;2022-09-09T01:46:01;35.57;;;21.80;;
23266;SDS011;11802;53.160;8.214;2022-09-09T01:48:34;33.90;;;21.70;;
23266;SDS011;11802;53.160;8.214;2022-09-09T01:51:00;33.53;;;21.87;;
23266;SDS011;11802;53.160;8.214;2022-09-09T01:53:25;33.37;;;21.50;;
23266;SDS011;11802;53.160;8.214;2022-09-09T01:56:00;32.97;;;21.87;;
23266;SDS011;11802;53.160;8.214;2022-09-09T01:58:57;35.67;;;22.37;;
23266;SDS011;11802;53.160;8.214;2022-09-09T02:01:35;35.50;;;21.97;;
23266;SDS011;11802;53.160;8.214;2022-09-09T02:04:20;36.03;;;21.97;;
23266;SDS011;11802;53.160;8.214;2022-09-09T02:06:52;34.97;;;22.27;;
23266;SDS011;11802;53.160;8.214;2022-09-09T02:09:21;32.47;;;19.93;;
23266;SDS011;11802;53.160;8.214;2022-09-09T02:11:48;32.27;;;20.50;;
23266;SDS011;11802;53.160;8.214;2022-09-09T02:14:25;35.80;;;20.23;;
23266;SDS011;11802;53.160;8.214;2022-09-09T02:16:59;34.73;;;21.50;;
23266;SDS011;11802;53.160;8.214;2022-09-09T02:19:32;33.30;;;21.17;;
23266;SDS011;11802;53.160;8.214;2022-09-09T02:22:22;30.70;;;20.00;;
23266;SDS011;11802;53.160;8.214;2022-09-09T02:24:49;33.03;;;22.37;;
23266;SDS011;11802;53.160;8.214;2022-09-09T02:27:19;32.43;;;20.87;;
23266;SDS011;11802;53.160;8.214;2022-09-09T02:29:46;31.93;;;19.97;;
23266;SDS011;11802;53.160;8.214;2022-09-09T02:32:15;37.50;;;21.70;;
23266;SDS011;11802;53.160;8.214;2022-09-09T02:34:45;33.80;;;20.57;;
23266;SDS011;11802;53.160;8.214;2022-09-09T02:37:15;33.93;;;20.50;;
23266;SDS011;11802;53.160;8.214;2022-09-09T02:39:47;32.23;;;21.17;;
23266;SDS011;11802;53.160;8.214;2022-09-09T02:42:13;32.43;;;19.70;;
23266;SDS011;11802;53.160;8.214;2022-09-09T02:44:39;32.47;;;21.50;;
23266;SDS011;11802;53.160;8.214;2022-09-09T02:47:22;30.53;;;19.63;;
23266;SDS011;11802;53.160;8.214;2022-09-09T02:50:05;33.03;;;19.93;;
23266;SDS011;11802;53.160;8.214;2022-09-09T02:52:35;30.80;;;20.57;;
23266;SDS011;11802;53.160;8.214;2022-09-09T02:55:29;32.87;;;20.27;;
23266;SDS011;11802;53.160;8.214;2022-09-09T02:58:12;36.47;;;20.83;;
23266;SDS011;11802;53.160;8.214;2022-09-09T03:00:42;36.67;;;21.30;;
23266;SDS011;11802;53.160;8.214;2022-09-09T03:03:10;33.43;;;21.23;;
23266;SDS011;11802;53.160;8.214;2022-09-09T03:05:36;31.47;;;20.73;;
23266;SDS011;11802;53.160;8.214;2022-09-09T03:08:02;32.43;;;21.10;;
23266;SDS011;11802;53.160;8.214;2022-09-09T03:10:30;33.13;;;21.47;;
23266;SDS011;11802;53.160;8.214;2022-09-09T03:12:56;31.10;;;21.07;;
23266;SDS011;11802;53.160;8.214;2022-09-09T03:15:22;32.90;;;20.53;;
23266;SDS011;11802;53.160;8.214;2022-09-09T03:17:47;31.50;;;20.63;;
23266;SDS011;11802;53.160;8.214;2022-09-09T03:20:13;30.27;;;19.13;;
23266;SDS011;11802;53.160;8.214;2022-09-09T03:22:38;31.70;;;20.83;;
23266;SDS011;11802;53.160;8.214;2022-09-09T03:25:05;32.53;;;21.20;;
23266;SDS011;11802;53.160;8.214;2022-09-09T03:27:31;37.27;;;20.47;;
23266;SDS011;11802;53.160;8.214;2022-09-09T03:29:57;31.33;;;19.90;;
23266;SDS011;11802;53.160;8.214;2022-09-09T03:32:23;29.60;;;19.50;;
23266;SDS011;11802;53.160;8.214;2022-09-09T03:34:50;28.37;;;18.57;;
23266;SDS011;11802;53.160;8.214;2022-09-09T03:37:17;29.60;;;18.57;;
23266;SDS011;11802;53.160;8.214;2022-09-09T03:39:42;26.37;;;18.50;;
23266;SDS011;11802;53.160;8.214;2022-09-09T03:42:08;26.63;;;18.80;;
23266;SDS011;11802;53.160;8.214;2022-09-09T03:44:34;26.70;;;17.73;;
23266;SDS011;11802;53.160;8.214;2022-09-09T03:46:59;26.97;;;17.37;;
23266;SDS011;11802;53.160;8.214;2022-09-09T03:49:25;27.27;;;17.67;;
23266;SDS011;11802;53.160;8.214;2022-09-09T03:51:53;28.27;;;17.13;;
23266;SDS011;11802;53.160;8.214;2022-09-09T03:54:19;20.90;;;16.07;;
23266;SDS011;11802;53.160;8.214;2022-09-09T03:56:45;23.57;;;16.70;;
23266;SDS011;11802;53.160;8.214;2022-09-09T03:59:10;25.60;;;16.13;;
23266;SDS011;11802;53.160;8.214;2022-09-09T04:01:36;27.40;;;16.97;;
23266;SDS011;11802;53.160;8.214;2022-09-09T04:04:01;27.03;;;18.10;;
23266;SDS011;11802;53.160;8.214;2022-09-09T04:06:27;23.23;;;16.70;;
23266;SDS011;11802;53.160;8.214;2022-09-09T04:08:53;26.60;;;17.10;;
23266;SDS011;11802;53.160;8.214;2022-09-09T04:11:20;26.30;;;18.10;;
23266;SDS011;11802;53.160;8.214;2022-09-09T04:13:45;22.73;;;16.87;;
23266;SDS011;11802;53.160;8.214;2022-09-09T04:16:11;24.60;;;16.77;;
23266;SDS011;11802;53.160;8.214;2022-09-09T04:18:40;23.50;;;16.40;;
23266;SDS011;11802;53.160;8.214;2022-09-09T04:21:07;25.13;;;16.50;;
23266;SDS011;11802;53.160;8.214;2022-09-09T04:23:35;23.17;;;15.90;;
23266;SDS011;11802;53.160;8.214;2022-09-09T04:26:01;25.67;;;16.70;;
23266;SDS011;11802;53.160;8.214;2022-09-09T04:28:28;22.63;;;16.03;;
23266;SDS011;11802;53.160;8.214;2022-09-09T04:30:55;21.47;;;14.97;;
23266;SDS011;11802;53.160;8.214;2022-09-09T04:33:23;23.73;;;14.67;;
23266;SDS011;11802;53.160;8.214;2022-09-09T04:35:51;19.97;;;14.47;;
23266;SDS011;11802;53.160;8.214;2022-09-09T04:38:19;22.60;;;15.17;;
23266;SDS011;11802;53.160;8.214;2022-09-09T04:40:49;21.43;;;14.33;;
23266;SDS011;11802;53.160;8.214;2022-09-09T04:43:16;20.17;;;15.07;;
23266;SDS011;11802;53.160;8.214;2022-09-09T04:45:44;19.67;;;14.67;;
23266;SDS011;11802;53.160;8.214;2022-09-09T04:48:12;19.93;;;14.43;;
23266;SDS011;11802;53.160;8.214;2022-09-09T04:50:38;27.37;;;13.67;;
23266;SDS011;11802;53.160;8.214;2022-09-09T04:53:05;20.13;;;14.03;;
23266;SDS011;11802;53.160;8.214;2022-09-09T04:55:31;22.93;;;14.60;;
23266;SDS011;11802;53.160;8.214;2022-09-09T04:58:02;19.20;;;14.40;;
23266;SDS011;11802;53.160;8.214;2022-09-09T05:00:32;19.37;;;13.27;;
23266;SDS011;11802;53.160;8.214;2022-09-09T05:03:01;22.53;;;13.47;;
23266;SDS011;11802;53.160;8.214;2022-09-09T05:05:28;22.37;;;14.47;;
23266;SDS011;11802;53.160;8.214;2022-09-09T05:07:53;22.07;;;14.40;;
23266;SDS011;11802;53.160;8.214;2022-09-09T05:10:19;19.13;;;12.80;;
23266;SDS011;11802;53.160;8.214;2022-09-09T05:12:51;20.50;;;14.27;;
23266;SDS011;11802;53.160;8.214;2022-09-09T05:15:18;16.87;;;11.47;;
23266;SDS011;11802;53.160;8.214;2022-09-09T05:17:45;21.73;;;13.37;;
23266;SDS011;11802;53.160;8.214;2022-09-09T05:20:11;19.47;;;12.77;;
23266;SDS011;11802;53.160;8.214;2022-09-09T05:22:37;19.50;;;12.67;;
23266;SDS011;11802;53.160;8.214;2022-09-09T05:25:02;19.83;;;13.30;;
23266;SDS011;11802;53.160;8.214;2022-09-09T05:27:28;16.90;;;11.90;;
23266;SDS011;11802;53.160;8.214;2022-09-09T05:29:56;19.53;;;12.60;;
23266;SDS011;11802;53.160;8.214;2022-09-09T05:32:23;16.27;;;11.80;;
23266;SDS011;11802;53.160;8.214;2022-09-09T05:34:49;15.67;;;11.47;;
23266;SDS011;11802;53.160;8.214;2022-09-09T05:37:15;16.73;;;12.00;;
23266;SDS011;11802;53.160;8.214;2022-09-09T05:39:41;16.73;;;10.83;;
23266;SDS011;11802;53.160;8.214;2022-09-09T05:42:07;19.80;;;11.83;;
23266;SDS011;11802;53.160;8.214;2022-09-09T05:44:32;17.23;;;11.40;;
23266;SDS011;11802;53.160;8.214;2022-09-09T05:46:58;15.57;;;10.10;;
23266;SDS011;11802;53.160;8.214;2022-09-09T05:49:24;12.93;;;9.07;;
23266;SDS011;11802;53.160;8.214;2022-09-09T05:51:49;14.60;;;10.57;;
23266;SDS011;11802;53.160;8.214;2022-09-09T05:54:16;25.97;;;10.13;;
23266;SDS011;11802;53.160;8.214;2022-09-09T05:56:42;14.33;;;9.47;;
23266;SDS011;11802;53.160;8.214;2022-09-09T05:59:08;12.60;;;8.30;;
23266;SDS011;11802;53.160;8.214;2022-09-09T06:01:35;11.83;;;7.17;;
23266;SDS011;11802;53.160;8.214;2022-09-09T06:04:05;12.60;;;6.53;;
23266;SDS011;11802;53.160;8.214;2022-09-09T06:06:32;10.82;;;6.65;;
23266;SDS011;11802;53.160;8.214;2022-09-09T06:09:02;9.60;;;6.15;;
23266;SDS011;11802;53.160;8.214;2022-09-09T06:11:31;11.77;;;6.00;;
23266;SDS011;11802;53.160;8.214;2022-09-09T06:13:59;6.90;;;5.32;;
23266;SDS011;11802;53.160;8.214;2022-09-09T06:16:25;7.93;;;6.32;;
23266;SDS011;11802;53.160;8.214;2022-09-09T06:18:53;9.23;;;5.25;;
23266;SDS011;11802;53.160;8.214;2022-09-09T06:21:30;8.75;;;5.80;;
23266;SDS011;11802;53.160;8.214;2022-09-09T06:23:57;8.35;;;5.40;;
23266;SDS011;11802;53.160;8.214;2022-09-09T06:26:24;12.23;;;5.45;;
23266;SDS011;11802;53.160;8.214;2022-09-09T06:28:52;10.13;;;4.93;;
23266;SDS011;11802;53.160;8.214;2022-09-09T06:31:20;8.65;;;4.40;;
23266;SDS011;11802;53.160;8.214;2022-09-09T06:33:47;7.65;;;4.55;;
23266;SDS011;11802;53.160;8.214;2022-09-09T06:36:16;7.28;;;4.20;;
23266;SDS011;11802;53.160;8.214;2022-09-09T06:38:43;9.02;;;4.70;;
23266;SDS011;11802;53.160;8.214;2022-09-09T06:41:10;7.32;;;4.10;;
23266;SDS011;11802;53.160;8.214;2022-09-09T06:43:37;7.93;;;4.35;;
23266;SDS011;11802;53.160;8.214;2022-09-09T06:48:38;7.80;;;4.40;;
23266;SDS011;11802;53.160;8.214;2022-09-09T06:53:41;7.22;;;4.88;;
23266;SDS011;11802;53.160;8.214;2022-09-09T06:56:22;10.65;;;5.07;;
23266;SDS011;11802;53.160;8.214;2022-09-09T06:58:50;7.50;;;5.07;;
23266;SDS011;11802;53.160;8.214;2022-09-09T07:01:18;7.68;;;5.43;;
23266;SDS011;11802;53.160;8.214;2022-09-09T07:03:46;7.95;;;5.38;;
23266;SDS011;11802;53.160;8.214;2022-09-09T07:06:23;10.73;;;5.72;;
23266;SDS011;11802;53.160;8.214;2022-09-09T07:08:51;8.90;;;5.25;;
23266;SDS011;11802;53.160;8.214;2022-09-09T07:11:18;9.98;;;6.05;;
23266;SDS011;11802;53.160;8.214;2022-09-09T07:13:45;9.63;;;5.05;;
23266;SDS011;11802;53.160;8.214;2022-09-09T07:16:12;8.80;;;5.22;;
23266;SDS011;11802;53.160;8.214;2022-09-09T07:18:39;8.57;;;3.72;;
23266;SDS011;11802;53.160;8.214;2022-09-09T07:21:05;8.52;;;3.90;;
23266;SDS011;11802;53.160;8.214;2022-09-09T07:23:32;7.50;;;4.00;;
23266;SDS011;11802;53.160;8.214;2022-09-09T07:26:01;5.75;;;3.00;;
23266;SDS011;11802;53.160;8.214;2022-09-09T07:28:35;7.05;;;3.15;;
23266;SDS011;11802;53.160;8.214;2022-09-09T07:31:02;6.63;;;4.07;;
23266;SDS011;11802;53.160;8.214;2022-09-09T07:33:40;9.20;;;5.13;;
23266;SDS011;11802;53.160;8.214;2022-09-09T07:36:06;7.45;;;3.95;;
23266;SDS011;11802;53.160;8.214;2022-09-09T07:38:38;8.88;;;5.05;;
23266;SDS011;11802;53.160;8.214;2022-09-09T07:41:06;8.68;;;4.53;;
23266;SDS011;11802;53.160;8.214;2022-09-09T07:43:36;6.75;;;4.25;;
23266;SDS011;11802;53.160;8.214;2022-09-09T07:46:04;9.43;;;5.88;;
23266;SDS011;11802;53.160;8.214;2022-09-09T07:48:30;6.18;;;4.35;;
23266;SDS011;11802;53.160;8.214;2022-09-09T07:51:05;6.43;;;3.80;;
23266;SDS011;11802;53.160;8.214;2022-09-09T07:53:32;6.38;;;3.75;;
23266;SDS011;11802;53.160;8.214;2022-09-09T07:56:04;4.93;;;3.75;;
23266;SDS011;11802;53.160;8.214;2022-09-09T07:58:32;9.18;;;4.20;;
23266;SDS011;11802;53.160;8.214;2022-09-09T08:00:58;5.45;;;3.70;;
23266;SDS011;11802;53.160;8.214;2022-09-09T08:03:24;7.15;;;3.35;;
23266;SDS011;11802;53.160;8.214;2022-09-09T08:05:50;6.45;;;3.85;;
23266;SDS011;11802;53.160;8.214;2022-09-09T08:08:16;7.90;;;4.07;;
23266;SDS011;11802;53.160;8.214;2022-09-09T08:10:42;7.38;;;4.47;;
23266;SDS011;11802;53.160;8.214;2022-09-09T08:13:08;8.93;;;4.18;;
23266;SDS011;11802;53.160;8.214;2022-09-09T08:15:34;6.75;;;3.83;;
23266;SDS011;11802;53.160;8.214;2022-09-09T08:17:59;8.10;;;4.18;;
23266;SDS011;11802;53.160;8.214;2022-09-09T08:20:25;7.35;;;3.97;;
23266;SDS011;11802;53.160;8.214;2022-09-09T08:22:50;6.35;;;3.80;;
23266;SDS011;11802;53.160;8.214;2022-09-09T08:25:16;5.82;;;3.78;;
23266;SDS011;11802;53.160;8.214;2022-09-09T08:27:41;5.18;;;3.45;;
23266;SDS011;11802;53.160;8.214;2022-09-09T08:30:07;6.07;;;3.33;;
23266;SDS011;11802;53.160;8.214;2022-09-09T08:32:33;6.30;;;3.28;;
23266;SDS011;11802;53.160;8.214;2022-09-09T08:35:00;6.43;;;2.83;;
23266;SDS011;11802;53.160;8.214;2022-09-09T08:37:25;5.30;;;3.05;;
23266;SDS011;11802;53.160;8.214;2022-09-09T08:39:51;6.00;;;3.50;;
23266;SDS011;11802;53.160;8.214;2022-09-09T08:42:25;5.95;;;3.22;;
23266;SDS011;11802;53.160;8.214;2022-09-09T08:45:28;5.80;;;3.40;;
23266;SDS011;11802;53.160;8.214;2022-09-09T08:50:48;5.88;;;3.00;;
23266;SDS011;11802;53.160;8.214;2022-09-09T08:53:19;7.97;;;3.45;;
23266;SDS011;11802;53.160;8.214;2022-09-09T08:55:54;6.18;;;3.10;;
23266;SDS011;11802;53.160;8.214;2022-09-09T08:58:27;4.82;;;3.03;;
23266;SDS011;11802;53.160;8.214;2022-09-09T09:06:31;6.60;;;3.03;;
23266;SDS011;11802;53.160;8.214;2022-09-09T09:12:18;5.85;;;2.13;;
23266;SDS011;11802;53.160;8.214;2022-09-09T09:14:46;5.85;;;1.80;;
23266;SDS011;11802;53.160;8.214;2022-09-09T09:17:14;4.38;;;1.98;;
23266;SDS011;11802;53.160;8.214;2022-09-09T09:19:44;4.03;;;2.15;;
23266;SDS011;11802;53.160;8.214;2022-09-09T09:22:18;9.20;;;5.10;;
23266;SDS011;11802;53.160;8.214;2022-09-09T09:27:40;6.55;;;3.17;;
23266;SDS011;11802;53.160;8.214;2022-09-09T09:30:17;7.25;;;2.95;;
23266;SDS011;11802;53.160;8.214;2022-09-09T09:32:50;4.60;;;3.20;;
23266;SDS011;11802;53.160;8.214;2022-09-09T09:35:24;5.65;;;2.80;;
23266;SDS011;11802;53.160;8.214;2022-09-09T09:37:50;4.55;;;2.65;;
23266;SDS011;11802;53.160;8.214;2022-09-09T09:40:17;7.38;;;3.40;;
23266;SDS011;11802;53.160;8.214;2022-09-09T09:42:48;7.47;;;2.53;;
23266;SDS011;11802;53.160;8.214;2022-09-09T09:45:27;10.30;;;2.47;;
23266;SDS011;11802;53.160;8.214;2022-09-09T09:48:10;6.57;;;2.40;;
23266;SDS011;11802;53.160;8.214;2022-09-09T09:50:47;5.10;;;2.03;;
23266;SDS011;11802;53.160;8.214;2022-09-09T09:56:02;4.82;;;2.10;;
23266;SDS011;11802;53.160;8.214;2022-09-09T10:01:02;4.97;;;1.73;;
23266;SDS011;11802;53.160;8.214;2022-09-09T10:03:30;5.22;;;2.28;;
23266;SDS011;11802;53.160;8.214;2022-09-09T10:05:57;5.05;;;2.17;;
23266;SDS011;11802;53.160;8.214;2022-09-09T10:08:24;5.22;;;2.22;;
23266;SDS011;11802;53.160;8.214;2022-09-09T10:11:02;9.65;;;2.13;;
23266;SDS011;11802;53.160;8.214;2022-09-09T10:13:52;7.15;;;2.30;;
23266;SDS011;11802;53.160;8.214;2022-09-09T10:16:36;4.75;;;2.08;;
23266;SDS011;11802;53.160;8.214;2022-09-09T10:19:05;5.55;;;1.90;;
23266;SDS011;11802;53.160;8.214;2022-09-09T10:43:48;5.57;;;1.80;;
23266;SDS011;11802;53.160;8.214;2022-09-09T10:48:31;5.22;;;2.05;;
23266;SDS011;11802;53.160;8.214;2022-09-09T10:54:15;5.95;;;2.35;;
23266;SDS011;11802;53.160;8.214;2022-09-09T10:57:07;7.70;;;2.33;;
23266;SDS011;11802;53.160;8.214;2022-09-09T10:59:40;6.28;;;2.13;;
23266;SDS011;11802;53.160;8.214;2022-09-09T11:02:15;3.35;;;1.73;;
23266;SDS011;11802;53.160;8.214;2022-09-09T11:04:54;5.47;;;1.80;;
23266;SDS011;11802;53.160;8.214;2022-09-09T11:07:47;4.43;;;1.63;;
23266;SDS011;11802;53.160;8.214;2022-09-09T11:10:22;5.75;;;1.63;;
23266;SDS011;11802;53.160;8.214;2022-09-09T11:13:04;5.75;;;2.17;;
23266;SDS011;11802;53.160;8.214;2022-09-09T11:15:45;7.97;;;2.75;;
23266;SDS011;11802;53.160;8.214;2022-09-09T11:18:19;7.25;;;3.08;;
23266;SDS011;11802;53.160;8.214;2022-09-09T11:20:48;6.25;;;2.75;;
23266;SDS011;11802;53.160;8.214;2022-09-09T11:23:22;5.55;;;2.05;;
23266;SDS011;11802;53.160;8.214;2022-09-09T11:25:59;7.43;;;2.20;;
23266;SDS011;11802;53.160;8.214;2022-09-09T11:31:11;6.72;;;2.65;;
23266;SDS011;11802;53.160;8.214;2022-09-09T11:37:01;4.25;;;1.90;;
23266;SDS011;11802;53.160;8.214;2022-09-09T11:44:37;8.38;;;2.47;;
23266;SDS011;11802;53.160;8.214;2022-09-09T11:47:03;5.75;;;2.40;;
23266;SDS011;11802;53.160;8.214;2022-09-09T11:52:10;8.05;;;2.45;;
23266;SDS011;11802;53.160;8.214;2022-09-09T11:54:55;7.80;;;2.53;;
23266;SDS011;11802;53.160;8.214;2022-09-09T11:57:25;5.82;;;2.35;;
23266;SDS011;11802;53.160;8.214;2022-09-09T11:59:57;6.85;;;2.83;;
23266;SDS011;11802;53.160;8.214;2022-09-09T12:02:23;11.93;;;3.65;;
23266;SDS011;11802;53.160;8.214;2022-09-09T12:04:59;12.40;;;4.38;;
23266;SDS011;11802;53.160;8.214;2022-09-09T12:12:45;9.18;;;3.83;;
23266;SDS011;11802;53.160;8.214;2022-09-09T12:17:41;8.57;;;4.25;;
23266;SDS011;11802;53.160;8.214;2022-09-09T12:20:14;8.70;;;4.18;;
23266;SDS011;11802;53.160;8.214;2022-09-09T12:26:06;9.18;;;3.85;;
23266;SDS011;11802;53.160;8.214;2022-09-09T12:28:46;7.72;;;3.63;;
23266;SDS011;11802;53.160;8.214;2022-09-09T12:33:55;9.40;;;4.18;;
23266;SDS011;11802;53.160;8.214;2022-09-09T12:36:29;9.55;;;3.85;;
23266;SDS011;11802;53.160;8.214;2022-09-09T12:38:58;9.38;;;4.20;;
23266;SDS011;11802;53.160;8.214;2022-09-09T12:41:38;9.65;;;3.72;;
23266;SDS011;11802;53.160;8.214;2022-09-09T12:44:10;8.57;;;3.95;;
23266;SDS011;11802;53.160;8.214;2022-09-09T12:46:39;10.55;;;4.47;;
23266;SDS011;11802;53.160;8.214;2022-09-09T12:49:37;8.43;;;4.60;;
23266;SDS011;11802;53.160;8.214;2022-09-09T12:52:12;7.82;;;3.83;;
23266;SDS011;11802;53.160;8.214;2022-09-09T12:55:02;8.88;;;4.22;;
23266;SDS011;11802;53.160;8.214;2022-09-09T12:57:34;8.95;;;4.43;;
23266;SDS011;11802;53.160;8.214;2022-09-09T13:00:24;9.98;;;4.47;;
23266;SDS011;11802;53.160;8.214;2022-09-09T13:02:50;9.45;;;4.00;;
23266;SDS011;11802;53.160;8.214;2022-09-09T13:05:19;8.60;;;4.47;;
23266;SDS011;11802;53.160;8.214;2022-09-09T13:07:51;8.38;;;3.90;;
23266;SDS011;11802;53.160;8.214;2022-09-09T13:10:27;8.50;;;4.30;;
23266;SDS011;11802;53.160;8.214;2022-09-09T13:12:59;8.77;;;3.60;;
23266;SDS011;11802;53.160;8.214;2022-09-09T13:15:26;6.80;;;3.65;;
23266;SDS011;11802;53.160;8.214;2022-09-09T13:17:58;9.68;;;4.20;;
23266;SDS011;11802;53.160;8.214;2022-09-09T13:20:30;8.88;;;4.03;;
23266;SDS011;11802;53.160;8.214;2022-09-09T13:22:56;10.05;;;4.00;;
23266;SDS011;11802;53.160;8.214;2022-09-09T13:25:28;7.93;;;4.15;;
23266;SDS011;11802;53.160;8.214;2022-09-09T13:28:04;9.90;;;4.18;;
23266;SDS011;11802;53.160;8.214;2022-09-09T13:30:37;8.20;;;3.80;;
23266;SDS011;11802;53.160;8.214;2022-09-09T13:33:18;11.80;;;4.90;;
23266;SDS011;11802;53.160;8.214;2022-09-09T13:35:52;9.20;;;4.30;;
23266;SDS011;11802;53.160;8.214;2022-09-09T13:38:24;9.38;;;4.60;;
23266;SDS011;11802;53.160;8.214;2022-09-09T13:40:56;10.82;;;4.55;;
23266;SDS011;11802;53.160;8.214;2022-09-09T13:43:28;8.88;;;4.70;;
23266;SDS011;11802;53.160;8.214;2022-09-09T13:45:59;13.95;;;4.97;;
23266;SDS011;11802;53.160;8.214;2022-09-09T13:48:27;12.23;;;5.18;;
23266;SDS011;11802;53.160;8.214;2022-09-09T13:50:58;11.23;;;5.20;;
23266;SDS011;11802;53.160;8.214;2022-09-09T13:53:30;9.13;;;4.60;;
23266;SDS011;11802;53.160;8.214;2022-09-09T13:55:59;11.10;;;4.30;;
23266;SDS011;11802;53.160;8.214;2022-09-09T13:58:50;7.97;;;3.90;;
23266;SDS011;11802;53.160;8.214;2022-09-09T14:01:16;8.90;;;3.70;;
23266;SDS011;11802;53.160;8.214;2022-09-09T14:03:41;7.43;;;3.55;;
23266;SDS011;11802;53.160;8.214;2022-09-09T14:06:08;7.40;;;3.13;;
23266;SDS011;11802;53.160;8.214;2022-09-09T14:08:34;8.02;;;3.55;;
23266;SDS011;11802;53.160;8.214;2022-09-09T14:11:02;6.85;;;2.63;;
23266;SDS011;11802;53.160;8.214;2022-09-09T14:13:28;3.97;;;2.13;;
23266;SDS011;11802;53.160;8.214;2022-09-09T14:15:54;5.65;;;2.28;;
23266;SDS011;11802;53.160;8.214;2022-09-09T14:18:20;6.38;;;2.00;;
23266;SDS011;11802;53.160;8.214;2022-09-09T14:20:47;3.60;;;1.85;;
23266;SDS011;11802;53.160;8.214;2022-09-09T14:23:13;4.50;;;2.17;;
23266;SDS011;11802;53.160;8.214;2022-09-09T14:25:40;3.78;;;1.80;;
23266;SDS011;11802;53.160;8.214;2022-09-09T14:28:07;6.20;;;2.30;;
23266;SDS011;11802;53.160;8.214;2022-09-09T14:30:37;8.85;;;2.67;;
23266;SDS011;11802;53.160;8.214;2022-09-09T14:33:05;8.15;;;2.30;;
23266;SDS011;11802;53.160;8.214;2022-09-09T14:35:30;4.43;;;2.25;;
23266;SDS011;11802;53.160;8.214;2022-09-09T14:37:58;5.47;;;2.58;;
23266;SDS011;11802;53.160;8.214;2022-09-09T14:40:23;5.57;;;2.50;;
23266;SDS011;11802;53.160;8.214;2022-09-09T14:42:49;6.85;;;2.60;;
23266;SDS011;11802;53.160;8.214;2022-09-09T14:45:15;5.70;;;2.35;;
23266;SDS011;11802;53.160;8.214;2022-09-09T14:47:40;4.97;;;2.60;;
23266;SDS011;11802;53.160;8.214;2022-09-09T14:50:06;7.65;;;3.05;;
23266;SDS011;11802;53.160;8.214;2022-09-09T14:52:33;6.78;;;2.65;;
23266;SDS011;11802;53.160;8.214;2022-09-09T14:54:58;5.82;;;2.75;;
23266;SDS011;11802;53.160;8.214;2022-09-09T14:57:24;6.80;;;2.40;;
23266;SDS011;11802;53.160;8.214;2022-09-09T14:59:49;7.30;;;2.47;;
23266;SDS011;11802;53.160;8.214;2022-09-09T15:02:15;5.47;;;2.80;;
23266;SDS011;11802;53.160;8.214;2022-09-09T15:04:41;7.90;;;2.97;;
23266;SDS011;11802;53.160;8.214;2022-09-09T15:07:07;6.70;;;2.92;;
23266;SDS011;11802;53.160;8.214;2022-09-09T15:09:32;6.00;;;2.85;;
23266;SDS011;11802;53.160;8.214;2022-09-09T15:11:58;7.00;;;2.67;;
23266;SDS011;11802;53.160;8.214;2022-09-09T15:14:24;6.03;;;2.60;;
23266;SDS011;11802;53.160;8.214;2022-09-09T15:16:51;7.07;;;2.72;;
23266;SDS011;11802;53.160;8.214;2022-09-09T15:19:16;7.78;;;2.55;;
23266;SDS011;11802;53.160;8.214;2022-09-09T15:21:42;6.32;;;2.55;;
23266;SDS011;11802;53.160;8.214;2022-09-09T15:24:07;6.35;;;2.75;;
23266;SDS011;11802;53.160;8.214;2022-09-09T15:26:33;6.50;;;2.10;;
23266;SDS011;11802;53.160;8.214;2022-09-09T15:29:00;5.95;;;2.20;;
23266;SDS011;11802;53.160;8.214;2022-09-09T15:31:26;3.15;;;1.90;;
23266;SDS011;11802;53.160;8.214;2022-09-09T15:33:54;4.82;;;2.00;;
23266;SDS011;11802;53.160;8.214;2022-09-09T15:36:26;4.10;;;1.90;;
23266;SDS011;11802;53.160;8.214;2022-09-09T15:38:57;3.38;;;1.70;;
23266;SDS011;11802;53.160;8.214;2022-09-09T15:41:24;5.80;;;1.90;;
23266;SDS011;11802;53.160;8.214;2022-09-09T15:43:52;5.32;;;2.05;;
23266;SDS011;11802;53.160;8.214;2022-09-09T15:46:34;3.60;;;1.95;;
23266;SDS011;11802;53.160;8.214;2022-09-09T15:51:35;4.70;;;2.30;;
23266;SDS011;11802;53.160;8.214;2022-09-09T15:54:05;6.70;;;2.25;;
23266;SDS011;11802;53.160;8.214;2022-09-09T15:56:31;5.78;;;2.50;;
23266;SDS011;11802;53.160;8.214;2022-09-09T15:58:57;4.88;;;2.28;;
23266;SDS011;11802;53.160;8.214;2022-09-09T16:01:24;7.40;;;2.75;;
23266;SDS011;11802;53.160;8.214;2022-09-09T16:03:51;7.50;;;2.88;;
23266;SDS011;11802;53.160;8.214;2022-09-09T16:06:17;4.63;;;2.78;;
23266;SDS011;11802;53.160;8.214;2022-09-09T16:08:46;5.93;;;2.67;;
23266;SDS011;11802;53.160;8.214;2022-09-09T16:11:18;6.15;;;2.75;;
23266;SDS011;11802;53.160;8.214;2022-09-09T16:13:46;4.57;;;2.90;;
23266;SDS011;11802;53.160;8.214;2022-09-09T16:16:14;7.20;;;2.67;;
23266;SDS011;11802;53.160;8.214;2022-09-09T16:18:45;5.55;;;2.33;;
23266;SDS011;11802;53.160;8.214;2022-09-09T16:21:16;9.32;;;3.10;;
23266;SDS011;11802;53.160;8.214;2022-09-09T16:23:46;4.80;;;2.50;;
23266;SDS011;11802;53.160;8.214;2022-09-09T16:26:14;5.63;;;2.50;;
23266;SDS011;11802;53.160;8.214;2022-09-09T16:28:41;7.97;;;2.63;;
23266;SDS011;11802;53.160;8.214;2022-09-09T16:31:10;6.78;;;2.70;;
23266;SDS011;11802;53.160;8.214;2022-09-09T16:33:38;6.72;;;2.75;;
23266;SDS011;11802;53.160;8.214;2022-09-09T16:36:05;4.57;;;2.20;;
23266;SDS011;11802;53.160;8.214;2022-09-09T16:38:31;7.63;;;3.08;;
23266;SDS011;11802;53.160;8.214;2022-09-09T16:41:01;8.23;;;2.92;;
23266;SDS011;11802;53.160;8.214;2022-09-09T16:43:29;5.85;;;2.92;;
23266;SDS011;11802;53.160;8.214;2022-09-09T16:45:55;7.82;;;3.42;;
23266;SDS011;11802;53.160;8.214;2022-09-09T16:48:21;8.52;;;3.92;;
23266;SDS011;11802;53.160;8.214;2022-09-09T16:50:46;6.65;;;3.22;;
23266;SDS011;11802;53.160;8.214;2022-09-09T16:53:13;6.82;;;3.65;;
23266;SDS011;11802;53.160;8.214;2022-09-09T16:55:40;7.30;;;3.40;;
23266;SDS011;11802;53.160;8.214;2022-09-09T16:58:07;9.57;;;3.30;;
23266;SDS011;11802;53.160;8.214;2022-09-09T17:00:33;7.40;;;3.63;;
23266;SDS011;11802;53.160;8.214;2022-09-09T17:02:59;7.43;;;4.00;;
23266;SDS011;11802;53.160;8.214;2022-09-09T17:05:25;7.53;;;3.50;;